sensor_id;sensor_type;location;lat;lon;timestamp;P1;durP1;ratioP1;P2;durP2;ratioP2
5199;SDS011;2619;47.868;11.892;2022-09-02T00:02:19;9.87;;;8.53;;
5199;SDS011;2619;47.868;11.892;2022-09-02T00:04:45;10.13;;;9.13;;
5199;SDS011;2619;47.868;11.892;2022-09-02T00:07:10;14.00;;;9.90;;
5199;SDS011;2619;47.868;11.892;2022-09-02T00:09:36;11.70;;;9.10;;
5199;SDS011;2619;47.868;11.892;2022-09-02T00:12:03;10.33;;;9.23;;
5199;SDS011;2619;47.868;11.892;2022-09-02T00:14:32;10.10;;;8.10;;
5199;SDS011;2619;47.868;11.892;2022-09-02T00:17:00;9.93;;;8.93;;
5199;SDS011;2619;47.868;11.892;2022-09-02T00:19:26;9.67;;;8.60;;
5199;SDS011;2619;47.868;11.892;2022-09-02T00:21:53;10.03;;;9.00;;
5199;SDS011;2619;47.868;11.892;2022-09-02T00:24:20;9.43;;;8.60;;
5199;SDS011;2619;47.868;11.892;2022-09-02T00:26:46;10.17;;;9.17;;
5199;SDS011;2619;47.868;11.892;2022-09-02T00:29:13;11.00;;;10.00;;
5199;SDS011;2619;47.868;11.892;2022-09-02T00:31:43;10.23;;;9.30;;
5199;SDS011;2619;47.868;11.892;2022-09-02T00:34:10;10.40;;;9.40;;
5199;SDS011;2619;47.868;11.892;2022-09-02T00:36:36;10.40;;;9.43;;
5199;SDS011;2619;47.868;11.892;2022-09-02T00:39:02;9.90;;;8.70;;
5199;SDS011;2619;47.868;11.892;2022-09-02T00:41:28;10.27;;;9.37;;
5199;SDS011;2619;47.868;11.892;2022-09-02T00:43:57;8.97;;;8.17;;
5199;SDS011;2619;47.868;11.892;2022-09-02T00:46:28;8.70;;;7.97;;
5199;SDS011;2619;47.868;11.892;2022-09-02T00:51:47;9.43;;;8.53;;
5199;SDS011;2619;47.868;11.892;2022-09-02T00:54:26;10.23;;;9.23;;
5199;SDS011;2619;47.868;11.892;2022-09-02T00:56:55;11.87;;;9.67;;
5199;SDS011;2619;47.868;11.892;2022-09-02T00:59:57;11.50;;;9.50;;
5199;SDS011;2619;47.868;11.892;2022-09-02T01:02:29;11.43;;;10.07;;
5199;SDS011;2619;47.868;11.892;2022-09-02T01:04:56;11.63;;;10.53;;
5199;SDS011;2619;47.868;11.892;2022-09-02T01:07:27;11.20;;;10.10;;
5199;SDS011;2619;47.868;11.892;2022-09-02T01:09:57;11.63;;;10.53;;
5199;SDS011;2619;47.868;11.892;2022-09-02T01:12:23;11.43;;;10.23;;
5199;SDS011;2619;47.868;11.892;2022-09-02T01:14:51;11.27;;;10.17;;
5199;SDS011;2619;47.868;11.892;2022-09-02T01:17:17;12.10;;;10.60;;
5199;SDS011;2619;47.868;11.892;2022-09-02T01:19:45;12.87;;;11.57;;
5199;SDS011;2619;47.868;11.892;2022-09-02T01:22:18;13.50;;;11.77;;
5199;SDS011;2619;47.868;11.892;2022-09-02T01:24:49;12.53;;;10.93;;
5199;SDS011;2619;47.868;11.892;2022-09-02T01:27:16;11.70;;;10.60;;
5199;SDS011;2619;47.868;11.892;2022-09-02T01:29:44;11.40;;;10.13;;
5199;SDS011;2619;47.868;11.892;2022-09-02T01:32:10;11.37;;;10.27;;
5199;SDS011;2619;47.868;11.892;2022-09-02T01:34:36;10.60;;;9.70;;
5199;SDS011;2619;47.868;11.892;2022-09-02T01:37:02;12.00;;;10.70;;
5199;SDS011;2619;47.868;11.892;2022-09-02T01:39:29;10.93;;;9.83;;
5199;SDS011;2619;47.868;11.892;2022-09-02T01:41:54;11.47;;;10.27;;
5199;SDS011;2619;47.868;11.892;2022-09-02T01:44:20;10.70;;;9.70;;
5199;SDS011;2619;47.868;11.892;2022-09-02T01:46:45;14.10;;;9.80;;
5199;SDS011;2619;47.868;11.892;2022-09-02T01:49:11;12.10;;;10.90;;
5199;SDS011;2619;47.868;11.892;2022-09-02T01:51:37;12.33;;;10.47;;
5199;SDS011;2619;47.868;11.892;2022-09-02T01:54:04;11.17;;;10.07;;
5199;SDS011;2619;47.868;11.892;2022-09-02T01:56:30;11.87;;;10.70;;
5199;SDS011;2619;47.868;11.892;2022-09-02T01:58:55;13.50;;;10.80;;
5199;SDS011;2619;47.868;11.892;2022-09-02T02:01:21;10.00;;;9.00;;
5199;SDS011;2619;47.868;11.892;2022-09-02T02:03:47;15.03;;;10.67;;
5199;SDS011;2619;47.868;11.892;2022-09-02T02:06:14;12.07;;;10.87;;
5199;SDS011;2619;47.868;11.892;2022-09-02T02:08:40;12.57;;;11.00;;
5199;SDS011;2619;47.868;11.892;2022-09-02T02:11:07;14.47;;;13.00;;
5199;SDS011;2619;47.868;11.892;2022-09-02T02:13:34;14.20;;;11.60;;
5199;SDS011;2619;47.868;11.892;2022-09-02T02:16:00;13.97;;;12.60;;
5199;SDS011;2619;47.868;11.892;2022-09-02T02:18:27;13.60;;;12.30;;
5199;SDS011;2619;47.868;11.892;2022-09-02T02:20:53;13.97;;;11.77;;
5199;SDS011;2619;47.868;11.892;2022-09-02T02:23:19;14.53;;;13.07;;
5199;SDS011;2619;47.868;11.892;2022-09-02T02:25:46;13.00;;;11.77;;
5199;SDS011;2619;47.868;11.892;2022-09-02T02:28:11;11.13;;;10.23;;
5199;SDS011;2619;47.868;11.892;2022-09-02T02:30:38;12.70;;;11.50;;
5199;SDS011;2619;47.868;11.892;2022-09-02T02:33:04;14.10;;;12.70;;
5199;SDS011;2619;47.868;11.892;2022-09-02T02:35:29;13.03;;;11.60;;
5199;SDS011;2619;47.868;11.892;2022-09-02T02:37:55;13.27;;;12.00;;
5199;SDS011;2619;47.868;11.892;2022-09-02T02:40:22;14.00;;;12.47;;
5199;SDS011;2619;47.868;11.892;2022-09-02T02:42:48;13.27;;;11.87;;
5199;SDS011;2619;47.868;11.892;2022-09-02T02:45:17;14.97;;;13.40;;
5199;SDS011;2619;47.868;11.892;2022-09-02T02:47:43;12.97;;;11.67;;
5199;SDS011;2619;47.868;11.892;2022-09-02T02:50:11;12.60;;;11.30;;
5199;SDS011;2619;47.868;11.892;2022-09-02T02:52:39;13.73;;;12.50;;
5199;SDS011;2619;47.868;11.892;2022-09-02T02:55:06;13.80;;;12.47;;
5199;SDS011;2619;47.868;11.892;2022-09-02T02:57:34;14.47;;;12.97;;
5199;SDS011;2619;47.868;11.892;2022-09-02T03:00:07;14.10;;;12.53;;
5199;SDS011;2619;47.868;11.892;2022-09-02T03:02:35;14.17;;;12.87;;
5199;SDS011;2619;47.868;11.892;2022-09-02T03:05:02;14.73;;;13.33;;
5199;SDS011;2619;47.868;11.892;2022-09-02T03:07:28;14.77;;;13.20;;
5199;SDS011;2619;47.868;11.892;2022-09-02T03:09:54;16.10;;;14.30;;
5199;SDS011;2619;47.868;11.892;2022-09-02T03:12:20;16.20;;;14.30;;
5199;SDS011;2619;47.868;11.892;2022-09-02T03:14:45;15.80;;;14.13;;
5199;SDS011;2619;47.868;11.892;2022-09-02T03:17:11;15.33;;;13.73;;
5199;SDS011;2619;47.868;11.892;2022-09-02T03:19:36;15.50;;;13.90;;
5199;SDS011;2619;47.868;11.892;2022-09-02T03:22:03;15.20;;;13.73;;
5199;SDS011;2619;47.868;11.892;2022-09-02T03:24:29;14.07;;;12.70;;
5199;SDS011;2619;47.868;11.892;2022-09-02T03:26:54;14.77;;;13.20;;
5199;SDS011;2619;47.868;11.892;2022-09-02T03:29:20;14.87;;;13.37;;
5199;SDS011;2619;47.868;11.892;2022-09-02T03:31:45;15.10;;;13.50;;
5199;SDS011;2619;47.868;11.892;2022-09-02T03:34:11;15.47;;;13.87;;
5199;SDS011;2619;47.868;11.892;2022-09-02T03:36:39;14.63;;;13.13;;
5199;SDS011;2619;47.868;11.892;2022-09-02T03:39:08;15.20;;;13.60;;
5199;SDS011;2619;47.868;11.892;2022-09-02T03:41:34;14.83;;;13.17;;
5199;SDS011;2619;47.868;11.892;2022-09-02T03:44:00;15.70;;;13.73;;
5199;SDS011;2619;47.868;11.892;2022-09-02T03:46:26;20.97;;;14.33;;
5199;SDS011;2619;47.868;11.892;2022-09-02T03:48:52;14.90;;;13.47;;
5199;SDS011;2619;47.868;11.892;2022-09-02T03:51:21;14.70;;;13.20;;
5199;SDS011;2619;47.868;11.892;2022-09-02T03:53:48;17.83;;;13.77;;
5199;SDS011;2619;47.868;11.892;2022-09-02T03:56:14;15.63;;;14.13;;
5199;SDS011;2619;47.868;11.892;2022-09-02T03:58:44;17.73;;;14.30;;
5199;SDS011;2619;47.868;11.892;2022-09-02T04:01:16;15.67;;;14.07;;
5199;SDS011;2619;47.868;11.892;2022-09-02T04:03:44;15.63;;;14.13;;
5199;SDS011;2619;47.868;11.892;2022-09-02T04:06:14;17.83;;;15.30;;
5199;SDS011;2619;47.868;11.892;2022-09-02T04:08:41;15.47;;;13.97;;
5199;SDS011;2619;47.868;11.892;2022-09-02T04:11:11;16.60;;;14.90;;
5199;SDS011;2619;47.868;11.892;2022-09-02T04:13:40;18.20;;;16.30;;
5199;SDS011;2619;47.868;11.892;2022-09-02T04:16:10;18.87;;;16.93;;
5199;SDS011;2619;47.868;11.892;2022-09-02T04:18:38;18.53;;;16.60;;
5199;SDS011;2619;47.868;11.892;2022-09-02T04:21:04;18.73;;;16.83;;
5199;SDS011;2619;47.868;11.892;2022-09-02T04:23:30;19.33;;;17.40;;
5199;SDS011;2619;47.868;11.892;2022-09-02T04:25:57;18.07;;;16.20;;
5199;SDS011;2619;47.868;11.892;2022-09-02T04:28:23;18.30;;;16.40;;
5199;SDS011;2619;47.868;11.892;2022-09-02T04:30:49;19.10;;;17.00;;
5199;SDS011;2619;47.868;11.892;2022-09-02T04:33:15;18.20;;;16.23;;
5199;SDS011;2619;47.868;11.892;2022-09-02T04:35:42;18.97;;;16.97;;
5199;SDS011;2619;47.868;11.892;2022-09-02T04:38:09;18.00;;;16.30;;
5199;SDS011;2619;47.868;11.892;2022-09-02T04:40:39;19.10;;;16.97;;
5199;SDS011;2619;47.868;11.892;2022-09-02T04:43:06;18.63;;;16.63;;
5199;SDS011;2619;47.868;11.892;2022-09-02T04:45:32;17.90;;;16.00;;
5199;SDS011;2619;47.868;11.892;2022-09-02T04:47:57;19.23;;;17.10;;
5199;SDS011;2619;47.868;11.892;2022-09-02T04:50:23;20.23;;;17.50;;
5199;SDS011;2619;47.868;11.892;2022-09-02T04:52:48;19.90;;;18.00;;
5199;SDS011;2619;47.868;11.892;2022-09-02T04:55:15;19.97;;;18.17;;
5199;SDS011;2619;47.868;11.892;2022-09-02T04:57:40;18.27;;;16.37;;
5199;SDS011;2619;47.868;11.892;2022-09-02T05:00:06;18.27;;;16.27;;
5199;SDS011;2619;47.868;11.892;2022-09-02T05:02:33;24.03;;;19.70;;
5199;SDS011;2619;47.868;11.892;2022-09-02T05:04:59;29.17;;;20.60;;
5199;SDS011;2619;47.868;11.892;2022-09-02T05:07:25;28.93;;;20.63;;
5199;SDS011;2619;47.868;11.892;2022-09-02T05:09:57;26.60;;;19.23;;
5199;SDS011;2619;47.868;11.892;2022-09-02T05:12:23;26.97;;;19.40;;
5199;SDS011;2619;47.868;11.892;2022-09-02T05:14:51;33.70;;;21.73;;
5199;SDS011;2619;47.868;11.892;2022-09-02T05:17:17;46.20;;;24.60;;
5199;SDS011;2619;47.868;11.892;2022-09-02T05:19:43;31.80;;;22.90;;
5199;SDS011;2619;47.868;11.892;2022-09-02T05:22:08;27.40;;;21.40;;
5199;SDS011;2619;47.868;11.892;2022-09-02T05:24:34;37.73;;;26.07;;
5199;SDS011;2619;47.868;11.892;2022-09-02T05:27:00;27.93;;;22.27;;
5199;SDS011;2619;47.868;11.892;2022-09-02T05:29:25;35.57;;;24.47;;
5199;SDS011;2619;47.868;11.892;2022-09-02T05:31:51;27.53;;;21.67;;
5199;SDS011;2619;47.868;11.892;2022-09-02T05:34:17;33.83;;;24.20;;
5199;SDS011;2619;47.868;11.892;2022-09-02T05:36:42;27.13;;;23.43;;
5199;SDS011;2619;47.868;11.892;2022-09-02T05:39:08;33.10;;;24.73;;
5199;SDS011;2619;47.868;11.892;2022-09-02T05:41:34;28.17;;;24.47;;
5199;SDS011;2619;47.868;11.892;2022-09-02T05:44:00;25.07;;;22.33;;
5199;SDS011;2619;47.868;11.892;2022-09-02T05:46:27;26.53;;;23.67;;
5199;SDS011;2619;47.868;11.892;2022-09-02T05:48:54;28.63;;;23.20;;
5199;SDS011;2619;47.868;11.892;2022-09-02T05:51:46;28.37;;;24.83;;
5199;SDS011;2619;47.868;11.892;2022-09-02T05:54:21;30.13;;;25.17;;
5199;SDS011;2619;47.868;11.892;2022-09-02T05:56:50;31.00;;;25.47;;
5199;SDS011;2619;47.868;11.892;2022-09-02T05:59:17;26.17;;;23.47;;
5199;SDS011;2619;47.868;11.892;2022-09-02T06:01:45;26.43;;;23.63;;
5199;SDS011;2619;47.868;11.892;2022-09-02T06:04:12;31.80;;;23.37;;
5199;SDS011;2619;47.868;11.892;2022-09-02T06:06:38;26.30;;;23.53;;
5199;SDS011;2619;47.868;11.892;2022-09-02T06:09:05;26.17;;;23.37;;
5199;SDS011;2619;47.868;11.892;2022-09-02T06:11:32;24.70;;;22.20;;
5199;SDS011;2619;47.868;11.892;2022-09-02T06:14:03;22.07;;;19.87;;
5199;SDS011;2619;47.868;11.892;2022-09-02T06:16:31;21.50;;;19.30;;
5199;SDS011;2619;47.868;11.892;2022-09-02T06:18:57;20.60;;;18.50;;
5199;SDS011;2619;47.868;11.892;2022-09-02T06:21:23;21.10;;;19.00;;
5199;SDS011;2619;47.868;11.892;2022-09-02T06:23:49;19.70;;;17.70;;
5199;SDS011;2619;47.868;11.892;2022-09-02T06:26:15;20.03;;;18.00;;
5199;SDS011;2619;47.868;11.892;2022-09-02T06:28:41;17.93;;;16.17;;
5199;SDS011;2619;47.868;11.892;2022-09-02T06:31:08;17.90;;;16.30;;
5199;SDS011;2619;47.868;11.892;2022-09-02T06:33:37;17.43;;;15.83;;
5199;SDS011;2619;47.868;11.892;2022-09-02T06:36:04;18.10;;;16.30;;
5199;SDS011;2619;47.868;11.892;2022-09-02T06:38:34;16.07;;;14.57;;
5199;SDS011;2619;47.868;11.892;2022-09-02T06:41:01;15.57;;;14.17;;
5199;SDS011;2619;47.868;11.892;2022-09-02T06:43:27;14.47;;;12.93;;
5199;SDS011;2619;47.868;11.892;2022-09-02T06:45:52;15.07;;;13.67;;
5199;SDS011;2619;47.868;11.892;2022-09-02T06:48:18;14.43;;;13.00;;
5199;SDS011;2619;47.868;11.892;2022-09-02T06:50:44;15.63;;;13.93;;
5199;SDS011;2619;47.868;11.892;2022-09-02T06:53:11;16.00;;;14.40;;
5199;SDS011;2619;47.868;11.892;2022-09-02T06:55:38;18.20;;;16.40;;
5199;SDS011;2619;47.868;11.892;2022-09-02T06:58:06;16.80;;;15.13;;
5199;SDS011;2619;47.868;11.892;2022-09-02T07:00:32;17.47;;;14.50;;
5199;SDS011;2619;47.868;11.892;2022-09-02T07:03:00;14.87;;;13.47;;
5199;SDS011;2619;47.868;11.892;2022-09-02T07:05:45;14.90;;;12.70;;
5199;SDS011;2619;47.868;11.892;2022-09-02T07:08:10;14.30;;;13.00;;
5199;SDS011;2619;47.868;11.892;2022-09-02T07:10:37;15.23;;;13.63;;
5199;SDS011;2619;47.868;11.892;2022-09-02T07:13:04;15.03;;;13.60;;
5199;SDS011;2619;47.868;11.892;2022-09-02T07:15:30;15.63;;;14.07;;
5199;SDS011;2619;47.868;11.892;2022-09-02T07:17:55;15.73;;;13.80;;
5199;SDS011;2619;47.868;11.892;2022-09-02T07:20:21;15.00;;;13.33;;
5199;SDS011;2619;47.868;11.892;2022-09-02T07:22:46;14.20;;;12.70;;
5199;SDS011;2619;47.868;11.892;2022-09-02T07:25:13;13.77;;;12.37;;
5199;SDS011;2619;47.868;11.892;2022-09-02T07:27:40;14.70;;;13.23;;
5199;SDS011;2619;47.868;11.892;2022-09-02T07:30:07;15.50;;;13.97;;
5199;SDS011;2619;47.868;11.892;2022-09-02T07:32:35;13.27;;;12.07;;
5199;SDS011;2619;47.868;11.892;2022-09-02T07:35:02;13.50;;;12.40;;
5199;SDS011;2619;47.868;11.892;2022-09-02T07:37:30;15.00;;;13.23;;
5199;SDS011;2619;47.868;11.892;2022-09-02T07:39:56;13.17;;;11.97;;
5199;SDS011;2619;47.868;11.892;2022-09-02T07:42:22;12.43;;;11.20;;
5199;SDS011;2619;47.868;11.892;2022-09-02T07:44:48;10.73;;;9.77;;
5199;SDS011;2619;47.868;11.892;2022-09-02T07:47:14;12.07;;;11.07;;
5199;SDS011;2619;47.868;11.892;2022-09-02T07:49:40;11.83;;;10.73;;
5199;SDS011;2619;47.868;11.892;2022-09-02T07:52:06;9.97;;;9.07;;
5199;SDS011;2619;47.868;11.892;2022-09-02T07:54:32;10.17;;;9.23;;
5199;SDS011;2619;47.868;11.892;2022-09-02T07:56:58;11.07;;;10.07;;
5199;SDS011;2619;47.868;11.892;2022-09-02T07:59:24;10.73;;;9.83;;
5199;SDS011;2619;47.868;11.892;2022-09-02T08:01:50;11.13;;;10.23;;
5199;SDS011;2619;47.868;11.892;2022-09-02T08:04:17;10.50;;;9.70;;
5199;SDS011;2619;47.868;11.892;2022-09-02T08:06:46;10.87;;;9.70;;
5199;SDS011;2619;47.868;11.892;2022-09-02T08:09:12;10.00;;;9.20;;
5199;SDS011;2619;47.868;11.892;2022-09-02T08:11:38;8.67;;;7.87;;
5199;SDS011;2619;47.868;11.892;2022-09-02T08:14:07;9.63;;;8.50;;
5199;SDS011;2619;47.868;11.892;2022-09-02T08:16:35;8.20;;;7.50;;
5199;SDS011;2619;47.868;11.892;2022-09-02T08:19:02;9.10;;;8.30;;
5199;SDS011;2619;47.868;11.892;2022-09-02T08:21:29;10.50;;;9.70;;
5199;SDS011;2619;47.868;11.892;2022-09-02T08:23:55;9.60;;;8.80;;
5199;SDS011;2619;47.868;11.892;2022-09-02T08:26:21;9.60;;;8.80;;
5199;SDS011;2619;47.868;11.892;2022-09-02T08:28:47;9.77;;;8.77;;
5199;SDS011;2619;47.868;11.892;2022-09-02T08:31:13;10.77;;;9.77;;
5199;SDS011;2619;47.868;11.892;2022-09-02T08:33:38;9.00;;;8.10;;
5199;SDS011;2619;47.868;11.892;2022-09-02T08:36:04;9.77;;;8.80;;
5199;SDS011;2619;47.868;11.892;2022-09-02T08:38:33;10.77;;;9.97;;
5199;SDS011;2619;47.868;11.892;2022-09-02T08:41:00;10.13;;;9.30;;
5199;SDS011;2619;47.868;11.892;2022-09-02T08:43:32;9.20;;;8.30;;
5199;SDS011;2619;47.868;11.892;2022-09-02T08:46:04;10.33;;;9.33;;
5199;SDS011;2619;47.868;11.892;2022-09-02T08:48:34;9.00;;;8.30;;
5199;SDS011;2619;47.868;11.892;2022-09-02T08:51:10;10.33;;;9.43;;
5199;SDS011;2619;47.868;11.892;2022-09-02T08:53:50;9.83;;;8.93;;
5199;SDS011;2619;47.868;11.892;2022-09-02T08:56:22;9.10;;;8.30;;
5199;SDS011;2619;47.868;11.892;2022-09-02T08:58:50;9.40;;;8.60;;
5199;SDS011;2619;47.868;11.892;2022-09-02T09:01:23;10.97;;;9.97;;
5199;SDS011;2619;47.868;11.892;2022-09-02T09:04:03;11.73;;;10.73;;
5199;SDS011;2619;47.868;11.892;2022-09-02T09:06:54;11.50;;;10.60;;
5199;SDS011;2619;47.868;11.892;2022-09-02T09:09:37;11.50;;;10.57;;
5199;SDS011;2619;47.868;11.892;2022-09-02T09:12:41;9.80;;;8.80;;
5199;SDS011;2619;47.868;11.892;2022-09-02T09:21:04;10.00;;;9.13;;
5199;SDS011;2619;47.868;11.892;2022-09-02T09:23:32;9.47;;;8.57;;
5199;SDS011;2619;47.868;11.892;2022-09-02T09:26:04;10.80;;;9.83;;
5199;SDS011;2619;47.868;11.892;2022-09-02T09:28:53;9.07;;;8.30;;
5199;SDS011;2619;47.868;11.892;2022-09-02T09:31:23;8.70;;;8.00;;
5199;SDS011;2619;47.868;11.892;2022-09-02T09:39:37;7.00;;;6.33;;
5199;SDS011;2619;47.868;11.892;2022-09-02T09:42:03;6.97;;;6.30;;
5199;SDS011;2619;47.868;11.892;2022-09-02T09:49:43;6.87;;;6.17;;
5199;SDS011;2619;47.868;11.892;2022-09-02T09:52:23;6.63;;;6.03;;
5199;SDS011;2619;47.868;11.892;2022-09-02T09:57:40;6.80;;;6.10;;
5199;SDS011;2619;47.868;11.892;2022-09-02T10:00:49;5.83;;;5.40;;
5199;SDS011;2619;47.868;11.892;2022-09-02T10:03:02;5.90;;;4.90;;
5199;SDS011;2619;47.868;11.892;2022-09-02T10:05:37;6.80;;;4.47;;
5199;SDS011;2619;47.868;11.892;2022-09-02T10:10:55;5.93;;;5.33;;
5199;SDS011;2619;47.868;11.892;2022-09-02T10:13:29;5.57;;;5.07;;
5199;SDS011;2619;47.868;11.892;2022-09-02T10:18:45;5.77;;;5.20;;
5199;SDS011;2619;47.868;11.892;2022-09-02T10:24:08;4.30;;;3.90;;
5199;SDS011;2619;47.868;11.892;2022-09-02T10:26:46;4.70;;;3.80;;
5199;SDS011;2619;47.868;11.892;2022-09-02T10:37:42;4.80;;;4.40;;
5199;SDS011;2619;47.868;11.892;2022-09-02T10:40:16;5.73;;;5.00;;
5199;SDS011;2619;47.868;11.892;2022-09-02T10:45:42;5.30;;;4.80;;
5199;SDS011;2619;47.868;11.892;2022-09-02T10:48:19;4.83;;;4.43;;
5199;SDS011;2619;47.868;11.892;2022-09-02T10:51:04;5.03;;;4.00;;
5199;SDS011;2619;47.868;11.892;2022-09-02T10:56:15;5.93;;;4.87;;
5199;SDS011;2619;47.868;11.892;2022-09-02T10:58:54;4.60;;;3.60;;
5199;SDS011;2619;47.868;11.892;2022-09-02T11:01:34;4.43;;;4.03;;
5199;SDS011;2619;47.868;11.892;2022-09-02T11:04:08;3.80;;;3.50;;
5199;SDS011;2619;47.868;11.892;2022-09-02T11:06:44;4.60;;;4.20;;
5199;SDS011;2619;47.868;11.892;2022-09-02T11:11:53;4.30;;;3.53;;
5199;SDS011;2619;47.868;11.892;2022-09-02T11:22:22;4.77;;;3.80;;
5199;SDS011;2619;47.868;11.892;2022-09-02T11:24:57;3.93;;;3.43;;
5199;SDS011;2619;47.868;11.892;2022-09-02T11:27:44;3.87;;;3.47;;
5199;SDS011;2619;47.868;11.892;2022-09-02T11:30:17;9.10;;;3.60;;
5199;SDS011;2619;47.868;11.892;2022-09-02T11:35:28;3.50;;;2.90;;
5199;SDS011;2619;47.868;11.892;2022-09-02T11:43:43;3.50;;;3.13;;
5199;SDS011;2619;47.868;11.892;2022-09-02T11:49:10;3.60;;;2.90;;
5199;SDS011;2619;47.868;11.892;2022-09-02T11:51:41;4.70;;;2.80;;
5199;SDS011;2619;47.868;11.892;2022-09-02T11:54:32;3.50;;;2.70;;
5199;SDS011;2619;47.868;11.892;2022-09-02T11:57:05;3.50;;;3.20;;
5199;SDS011;2619;47.868;11.892;2022-09-02T12:02:30;5.40;;;3.13;;
5199;SDS011;2619;47.868;11.892;2022-09-02T12:07:56;5.73;;;3.07;;
5199;SDS011;2619;47.868;11.892;2022-09-02T12:13:08;2.83;;;2.53;;
5199;SDS011;2619;47.868;11.892;2022-09-02T12:18:37;3.83;;;2.93;;
5199;SDS011;2619;47.868;11.892;2022-09-02T12:28:50;3.17;;;2.87;;
5199;SDS011;2619;47.868;11.892;2022-09-02T12:36:50;2.70;;;2.43;;
5199;SDS011;2619;47.868;11.892;2022-09-02T12:47:02;3.80;;;2.07;;
5199;SDS011;2619;47.868;11.892;2022-09-02T12:57:37;2.90;;;1.70;;
5199;SDS011;2619;47.868;11.892;2022-09-02T13:00:04;2.17;;;1.97;;
5199;SDS011;2619;47.868;11.892;2022-09-02T13:05:30;3.57;;;1.70;;
5199;SDS011;2619;47.868;11.892;2022-09-02T13:16:50;2.40;;;1.60;;
5199;SDS011;2619;47.868;11.892;2022-09-02T13:19:48;3.57;;;1.53;;
5199;SDS011;2619;47.868;11.892;2022-09-02T13:22:37;2.00;;;1.60;;
5199;SDS011;2619;47.868;11.892;2022-09-02T13:25:14;2.57;;;2.10;;
5199;SDS011;2619;47.868;11.892;2022-09-02T13:33:37;3.17;;;2.00;;
5199;SDS011;2619;47.868;11.892;2022-09-02T13:36:03;2.20;;;1.90;;
5199;SDS011;2619;47.868;11.892;2022-09-02T13:38:29;4.50;;;1.83;;
5199;SDS011;2619;47.868;11.892;2022-09-02T13:40:56;2.30;;;1.80;;
5199;SDS011;2619;47.868;11.892;2022-09-02T13:43:23;2.40;;;1.80;;
5199;SDS011;2619;47.868;11.892;2022-09-02T13:45:51;3.87;;;1.80;;
5199;SDS011;2619;47.868;11.892;2022-09-02T13:48:28;3.13;;;2.60;;
5199;SDS011;2619;47.868;11.892;2022-09-02T13:50:56;4.73;;;2.20;;
5199;SDS011;2619;47.868;11.892;2022-09-02T13:53:33;2.83;;;1.83;;
5199;SDS011;2619;47.868;11.892;2022-09-02T13:56:07;3.90;;;1.80;;
5199;SDS011;2619;47.868;11.892;2022-09-02T13:58:50;3.17;;;2.00;;
5199;SDS011;2619;47.868;11.892;2022-09-02T14:01:26;10.30;;;2.37;;
5199;SDS011;2619;47.868;11.892;2022-09-02T14:03:58;3.30;;;2.10;;
5199;SDS011;2619;47.868;11.892;2022-09-02T14:06:28;3.80;;;2.40;;
5199;SDS011;2619;47.868;11.892;2022-09-02T14:09:01;4.30;;;1.73;;
5199;SDS011;2619;47.868;11.892;2022-09-02T14:11:31;2.00;;;1.67;;
5199;SDS011;2619;47.868;11.892;2022-09-02T14:14:02;3.20;;;2.00;;
5199;SDS011;2619;47.868;11.892;2022-09-02T14:16:32;3.13;;;2.03;;
5199;SDS011;2619;47.868;11.892;2022-09-02T14:19:07;3.43;;;1.67;;
5199;SDS011;2619;47.868;11.892;2022-09-02T14:21:51;2.67;;;1.83;;
5199;SDS011;2619;47.868;11.892;2022-09-02T14:24:26;2.60;;;1.63;;
5199;SDS011;2619;47.868;11.892;2022-09-02T14:26:54;2.40;;;1.73;;
5199;SDS011;2619;47.868;11.892;2022-09-02T14:29:22;2.17;;;1.60;;
5199;SDS011;2619;47.868;11.892;2022-09-02T14:34:39;4.40;;;2.17;;
5199;SDS011;2619;47.868;11.892;2022-09-02T14:40:07;2.30;;;1.67;;
5199;SDS011;2619;47.868;11.892;2022-09-02T14:42:47;2.33;;;1.80;;
5199;SDS011;2619;47.868;11.892;2022-09-02T14:45:28;2.43;;;1.80;;
5199;SDS011;2619;47.868;11.892;2022-09-02T14:47:59;3.67;;;1.80;;
5199;SDS011;2619;47.868;11.892;2022-09-02T14:50:37;2.43;;;1.60;;
5199;SDS011;2619;47.868;11.892;2022-09-02T14:53:08;2.40;;;1.97;;
5199;SDS011;2619;47.868;11.892;2022-09-02T14:55:50;4.10;;;1.77;;
5199;SDS011;2619;47.868;11.892;2022-09-02T14:58:20;2.50;;;1.77;;
5199;SDS011;2619;47.868;11.892;2022-09-02T15:00:51;3.30;;;1.77;;
5199;SDS011;2619;47.868;11.892;2022-09-02T15:03:22;2.83;;;2.10;;
5199;SDS011;2619;47.868;11.892;2022-09-02T15:05:49;1.80;;;1.30;;
5199;SDS011;2619;47.868;11.892;2022-09-02T15:08:16;2.10;;;1.70;;
5199;SDS011;2619;47.868;11.892;2022-09-02T15:10:42;3.87;;;1.80;;
5199;SDS011;2619;47.868;11.892;2022-09-02T15:13:13;2.47;;;1.50;;
5199;SDS011;2619;47.868;11.892;2022-09-02T15:15:51;3.13;;;1.67;;
5199;SDS011;2619;47.868;11.892;2022-09-02T15:18:19;2.20;;;1.80;;
5199;SDS011;2619;47.868;11.892;2022-09-02T15:20:45;2.67;;;1.80;;
5199;SDS011;2619;47.868;11.892;2022-09-02T15:23:10;1.93;;;1.50;;
5199;SDS011;2619;47.868;11.892;2022-09-02T15:25:36;2.80;;;1.93;;
5199;SDS011;2619;47.868;11.892;2022-09-02T15:28:02;3.10;;;1.87;;
5199;SDS011;2619;47.868;11.892;2022-09-02T15:30:27;3.40;;;1.97;;
5199;SDS011;2619;47.868;11.892;2022-09-02T15:32:53;2.57;;;2.10;;
5199;SDS011;2619;47.868;11.892;2022-09-02T15:35:19;2.37;;;1.97;;
5199;SDS011;2619;47.868;11.892;2022-09-02T15:37:47;2.40;;;1.63;;
5199;SDS011;2619;47.868;11.892;2022-09-02T15:40:14;3.63;;;1.90;;
5199;SDS011;2619;47.868;11.892;2022-09-02T15:42:39;2.27;;;1.93;;
5199;SDS011;2619;47.868;11.892;2022-09-02T15:45:05;3.30;;;1.97;;
5199;SDS011;2619;47.868;11.892;2022-09-02T15:47:35;3.57;;;1.90;;
5199;SDS011;2619;47.868;11.892;2022-09-02T15:50:03;2.20;;;1.63;;
5199;SDS011;2619;47.868;11.892;2022-09-02T15:52:29;2.77;;;1.97;;
5199;SDS011;2619;47.868;11.892;2022-09-02T15:54:55;3.50;;;2.30;;
5199;SDS011;2619;47.868;11.892;2022-09-02T15:57:20;2.83;;;1.70;;
5199;SDS011;2619;47.868;11.892;2022-09-02T15:59:46;3.53;;;2.03;;
5199;SDS011;2619;47.868;11.892;2022-09-02T16:02:12;3.33;;;1.80;;
5199;SDS011;2619;47.868;11.892;2022-09-02T16:04:38;3.53;;;1.80;;
5199;SDS011;2619;47.868;11.892;2022-09-02T16:07:04;3.93;;;1.90;;
5199;SDS011;2619;47.868;11.892;2022-09-02T16:09:30;3.80;;;1.67;;
5199;SDS011;2619;47.868;11.892;2022-09-02T16:11:55;4.40;;;1.80;;
5199;SDS011;2619;47.868;11.892;2022-09-02T16:14:21;3.43;;;1.93;;
5199;SDS011;2619;47.868;11.892;2022-09-02T16:16:48;3.10;;;1.77;;
5199;SDS011;2619;47.868;11.892;2022-09-02T16:19:17;2.20;;;1.63;;
5199;SDS011;2619;47.868;11.892;2022-09-02T16:21:44;2.67;;;1.60;;
5199;SDS011;2619;47.868;11.892;2022-09-02T16:24:09;2.77;;;2.00;;
5199;SDS011;2619;47.868;11.892;2022-09-02T16:26:36;3.20;;;1.60;;
5199;SDS011;2619;47.868;11.892;2022-09-02T16:29:07;2.90;;;1.63;;
5199;SDS011;2619;47.868;11.892;2022-09-02T16:31:36;2.10;;;1.50;;
5199;SDS011;2619;47.868;11.892;2022-09-02T16:34:07;3.20;;;2.00;;
5199;SDS011;2619;47.868;11.892;2022-09-02T16:36:34;2.13;;;1.50;;
5199;SDS011;2619;47.868;11.892;2022-09-02T16:39:08;3.53;;;2.00;;
5199;SDS011;2619;47.868;11.892;2022-09-02T16:41:38;2.90;;;2.10;;
5199;SDS011;2619;47.868;11.892;2022-09-02T16:44:13;5.40;;;2.20;;
5199;SDS011;2619;47.868;11.892;2022-09-02T16:46:41;3.80;;;1.87;;
5199;SDS011;2619;47.868;11.892;2022-09-02T16:49:08;2.80;;;1.60;;
5199;SDS011;2619;47.868;11.892;2022-09-02T16:51:35;2.80;;;1.60;;
5199;SDS011;2619;47.868;11.892;2022-09-02T16:54:03;2.50;;;1.80;;
5199;SDS011;2619;47.868;11.892;2022-09-02T16:56:29;2.67;;;1.90;;
5199;SDS011;2619;47.868;11.892;2022-09-02T16:58:55;2.83;;;2.00;;
5199;SDS011;2619;47.868;11.892;2022-09-02T17:01:24;2.43;;;1.80;;
5199;SDS011;2619;47.868;11.892;2022-09-02T17:03:50;2.90;;;1.90;;
5199;SDS011;2619;47.868;11.892;2022-09-02T17:06:16;6.07;;;1.67;;
5199;SDS011;2619;47.868;11.892;2022-09-02T17:08:42;2.50;;;1.90;;
5199;SDS011;2619;47.868;11.892;2022-09-02T17:11:13;4.70;;;1.93;;